Time;durP1;ratioP1;P1;durP2;ratioP2;P2;SDS_P1;SDS_P2;PMS_P1;PMS_P2;Temp;Humidity;BMP_temperature;BMP_pressure;BME280_temperature;BME280_humidity;BME280_pressure;Samples;Min_cycle;Max_cycle;Signal;HPM_P1;HPM_P2
2023/12/26 00:00:06;;;;;;;0.00;0.00;;;;;;;25.19;100.00;100362.44;10485076;28;20141;-87
2023/12/26 00:05:12;;;;;;;0.00;0.00;;;;;;;25.09;100.00;100350.56;10480944;28;20503;-86
2023/12/26 00:10:15;;;;;;;0.35;0.20;;;;;;;24.55;100.00;100349.28;10483014;28;20040;-86
2023/12/26 00:15:17;;;;;;;0.08;0.00;;;;;;;24.58;100.00;100352.66;10498686;28;20588;-88
2023/12/26 00:20:19;;;;;;;0.08;0.00;;;;;;;24.66;100.00;100350.56;10500123;28;20066;-87
2023/12/26 00:25:21;;;;;;;0.05;0.05;;;;;;;24.29;100.00;100360.84;10482253;28;20506;-87
2023/12/26 00:30:23;;;;;;;0.00;0.00;;;;;;;25.25;100.00;100356.88;10484144;28;20480;-87
2023/12/26 00:35:25;;;;;;;0.08;0.08;;;;;;;24.35;100.00;100371.13;10464414;28;20067;-87
2023/12/26 00:40:27;;;;;;;0.00;0.00;;;;;;;26.21;100.00;100355.19;10497764;28;20044;-88
2023/12/26 00:45:29;;;;;;;0.00;0.00;;;;;;;24.29;100.00;100360.84;10481739;28;20471;-88
2023/12/26 00:50:31;;;;;;;0.00;0.00;;;;;;;23.24;100.00;100370.03;10479788;28;20047;-87
2023/12/26 00:55:33;;;;;;;0.03;0.03;;;;;;;24.88;100.00;100374.28;10470346;28;20048;-87
2023/12/26 01:00:36;;;;;;;0.00;0.00;;;;;;;24.67;100.00;100386.56;10476724;28;20040;-87
2023/12/26 01:05:37;;;;;;;0.10;0.10;;;;;;;24.39;100.00;100388.50;10495958;28;20044;-87
2023/12/26 01:10:39;;;;;;;0.10;0.00;;;;;;;25.74;100.00;100389.91;10465945;28;20062;-88
2023/12/26 01:15:41;;;;;;;0.00;0.00;;;;;;;25.64;100.00;100385.06;10479520;28;20062;-88
2023/12/26 01:20:43;;;;;;;0.00;0.00;;;;;;;25.80;100.00;100389.63;10483854;28;20036;-88
2023/12/26 01:25:45;;;;;;;0.20;0.13;;;;;;;24.36;100.00;100388.66;10477832;28;20045;-87
2023/12/26 01:30:47;;;;;;;0.00;0.00;;;;;;;25.64;100.00;100385.06;10474609;28;20045;-88
2023/12/26 01:35:49;;;;;;;0.03;0.03;;;;;;;23.86;100.00;100389.66;10474441;28;20044;-88
2023/12/26 01:40:51;;;;;;;1.25;0.25;;;;;;;25.31;100.00;100398.78;10477906;28;20064;-87
2023/12/26 01:45:58;;;;;;;0.00;0.00;;;;;;;24.58;100.00;100389.53;10477629;28;20071;-87
2023/12/26 01:51:02;;;;;;;0.70;0.20;;;;;;;24.42;100.00;100398.09;10492950;28;20044;-87
2023/12/26 01:56:10;;;;;;;0.00;0.00;;;;;;;25.47;100.00;100398.97;10490823;28;20102;-87
2023/12/26 02:01:13;;;;;;;0.00;0.00;;;;;;;24.49;100.00;100398.69;10477281;28;20048;-87
2023/12/26 02:06:15;;;;;;;0.10;0.10;;;;;;;24.39;100.00;100409.56;10467543;28;20044;-87
2023/12/26 02:11:17;;;;;;;0.00;0.00;;;;;;;25.12;100.00;100405.78;10469589;28;20037;-86
2023/12/26 02:16:21;;;;;;;0.30;0.20;;;;;;;25.15;100.00;100410.91;10470864;28;20051;-88
2023/12/26 02:21:23;;;;;;;0.00;0.00;;;;;;;25.08;100.00;100412.09;10470453;28;20066;-88
2023/12/26 02:26:28;;;;;;;0.10;0.10;;;;;;;24.59;100.00;100405.31;10471128;28;20090;-87
2023/12/26 02:31:31;;;;;;;0.00;0.00;;;;;;;24.96;100.00;100426.66;10476683;28;20037;-86
2023/12/26 02:36:33;;;;;;;0.20;0.10;;;;;;;25.55;100.00;100419.75;10493094;28;20143;-86
2023/12/26 02:41:36;;;;;;;0.10;0.10;;;;;;;25.48;100.00;100436.78;10475914;28;20445;-87
2023/12/26 02:46:38;;;;;;;0.10;0.10;;;;;;;25.78;100.00;100438.97;10489887;28;20045;-86
2023/12/26 02:51:39;;;;;;;0.00;0.00;;;;;;;25.74;100.00;100451.44;10476353;28;20525;-88
2023/12/26 02:56:41;;;;;;;0.00;0.00;;;;;;;24.01;100.00;100467.19;10475815;28;20056;-86
2023/12/26 03:01:45;;;;;;;0.00;0.00;;;;;;;24.90;100.00;100472.56;10476009;28;20131;-86
2023/12/26 03:06:47;;;;;;;0.15;0.10;;;;;;;24.29;100.00;100460.88;10484715;28;20044;-86
2023/12/26 03:11:49;;;;;;;0.00;0.00;;;;;;;24.51;100.00;100486.38;10497917;28;20415;-87
2023/12/26 03:16:51;;;;;;;0.00;0.00;;;;;;;24.97;100.00;100499.50;10454033;28;20044;-87
2023/12/26 03:21:53;;;;;;;0.00;0.00;;;;;;;24.42;100.00;100498.13;10474061;28;20480;-86
2023/12/26 03:26:55;;;;;;;0.00;0.00;;;;;;;24.54;100.00;100491.50;10508923;28;20778;-87
2023/12/26 03:31:57;;;;;;;0.00;0.00;;;;;;;24.16;100.00;100501.75;10479094;28;20085;-87
2023/12/26 03:36:59;;;;;;;0.00;0.00;;;;;;;23.57;100.00;100519.56;10475596;28;20056;-88
2023/12/26 03:42:01;;;;;;;0.00;0.00;;;;;;;24.32;100.00;100529.19;10483031;28;20574;-87
2023/12/26 03:47:04;;;;;;;0.00;0.00;;;;;;;24.92;100.00;100528.69;10474894;28;20444;-86
2023/12/26 03:52:06;;;;;;;3.70;0.47;;;;;;;26.50;100.00;100532.50;10473989;28;20048;-86
2023/12/26 03:57:08;;;;;;;0.00;0.00;;;;;;;25.68;100.00;100553.72;10492496;28;20405;-84
2023/12/26 04:02:10;;;;;;;0.00;0.00;;;;;;;26.25;100.00;100557.38;10484108;28;20136;-84
2023/12/26 04:07:13;;;;;;;0.00;0.00;;;;;;;26.16;100.00;100549.91;10480281;28;20051;-86
2023/12/26 04:12:15;;;;;;;0.00;0.00;;;;;;;26.46;100.00;100546.78;10509963;28;20094;-85
2023/12/26 04:17:17;;;;;;;0.00;0.00;;;;;;;26.95;100.00;100558.63;10495583;28;20063;-84
2023/12/26 04:22:19;;;;;;;0.00;0.00;;;;;;;27.50;100.00;100566.53;10489999;28;20074;-85
2023/12/26 04:27:22;;;;;;;0.00;0.00;;;;;;;26.68;100.00;100566.91;10484230;28;20160;-85
2023/12/26 04:32:26;;;;;;;0.00;0.00;;;;;;;26.37;100.00;100579.75;10479535;28;20044;-85
2023/12/26 04:37:28;;;;;;;0.00;0.00;;;;;;;25.60;100.00;100578.66;10460036;28;20064;-85
2023/12/26 04:42:30;;;;;;;0.00;0.00;;;;;;;24.91;100.00;100584.09;10479387;28;20094;-86
2023/12/26 04:47:32;;;;;;;0.00;0.00;;;;;;;24.00;100.00;100598.78;10455706;28;20070;-87
2023/12/26 04:52:34;;;;;;;0.13;0.13;;;;;;;24.93;100.00;100604.19;10474351;28;20044;-85
2023/12/26 04:57:37;;;;;;;0.38;0.10;;;;;;;25.34;100.00;100599.06;10494186;28;20139;-85
2023/12/26 05:02:39;;;;;;;0.10;0.05;;;;;;;25.60;100.00;100623.50;10498698;28;20040;-85
2023/12/26 05:07:41;;;;;;;0.00;0.00;;;;;;;25.05;100.00;100646.81;10487306;28;20471;-87
2023/12/26 05:12:44;;;;;;;0.00;0.00;;;;;;;24.40;100.00;100650.88;10507082;28;20032;-86
2023/12/26 05:17:46;;;;;;;0.10;0.10;;;;;;;23.86;100.00;100672.91;10476088;28;20097;-86
2023/12/26 05:22:48;;;;;;;0.03;0.00;;;;;;;23.79;100.00;100677.50;10477072;28;20102;-86
2023/12/26 05:27:50;;;;;;;0.00;0.00;;;;;;;24.21;100.00;100684.03;10476388;28;20059;-86
2023/12/26 05:32:52;;;;;;;0.05;0.05;;;;;;;25.14;100.00;100696.50;10476571;28;20243;-84
2023/12/26 05:37:57;;;;;;;1.35;0.43;;;;;;;23.72;100.00;100692.63;10483980;28;20175;-86
2023/12/26 05:42:59;;;;;;;0.08;0.08;;;;;;;24.89;100.00;100692.19;10461512;28;20040;-85
2023/12/26 05:48:01;;;;;;;0.00;0.00;;;;;;;24.40;100.00;100707.94;10478340;28;20044;-85
2023/12/26 05:53:04;;;;;;;0.00;0.00;;;;;;;24.14;100.00;100716.75;10491883;28;20072;-85
2023/12/26 05:58:06;;;;;;;0.55;0.25;;;;;;;24.85;100.00;100732.72;10485746;28;20051;-85
2023/12/26 06:03:08;;;;;;;0.22;0.20;;;;;;;24.51;100.00;100736.53;10475428;28;20140;-84
2023/12/26 06:08:11;;;;;;;0.00;0.00;;;;;;;24.60;100.00;100748.50;10479639;28;20064;-84
2023/12/26 06:13:13;;;;;;;1.40;0.15;;;;;;;24.71;100.00;100763.06;10454510;28;20037;-84
2023/12/26 06:18:15;;;;;;;0.63;0.57;;;;;;;24.07;100.00;100787.13;10472659;28;20055;-85
2023/12/26 06:23:18;;;;;;;0.10;0.10;;;;;;;24.50;100.00;100795.38;10473821;28;20044;-85
2023/12/26 06:28:21;;;;;;;0.00;0.00;;;;;;;25.26;100.00;100798.88;10475007;28;20048;-84
2023/12/26 06:33:22;;;;;;;21.83;0.47;;;;;;;24.34;100.00;100814.31;10486546;28;20135;-85
2023/12/26 06:38:24;;;;;;;0.00;0.00;;;;;;;24.18;100.00;100821.00;10471850;28;20045;-84
2023/12/26 06:43:28;;;;;;;0.38;0.38;;;;;;;23.22;100.00;100844.88;10476658;28;20071;-85
2023/12/26 06:48:29;;;;;;;0.45;0.30;;;;;;;23.59;100.00;100849.06;10475925;28;20079;-84
2023/12/26 06:53:31;;;;;;;0.00;0.00;;;;;;;24.21;100.00;100852.50;10474400;28;20040;-84
2023/12/26 06:58:34;;;;;;;0.00;0.00;;;;;;;23.54;100.00;100861.50;10465290;28;20049;-84
2023/12/26 07:03:36;;;;;;;0.00;0.00;;;;;;;24.19;100.00;100880.63;10473246;28;20050;-83
2023/12/26 07:08:38;;;;;;;0.00;0.00;;;;;;;22.92;100.00;100885.06;10465422;28;20047;-85
2023/12/26 07:13:39;;;;;;;1.65;1.55;;;;;;;22.75;100.00;100882.84;10474093;28;20052;-84
2023/12/26 07:18:41;;;;;;;1.45;0.85;;;;;;;23.91;100.00;100891.97;10472019;28;20053;-84
2023/12/26 07:23:46;;;;;;;2.53;0.30;;;;;;;24.00;100.00;100899.63;10469648;28;20036;-85
2023/12/26 07:28:48;;;;;;;0.00;0.00;;;;;;;24.16;100.00;100901.81;10469356;28;20154;-84
2023/12/26 07:33:51;;;;;;;0.00;0.00;;;;;;;22.61;100.00;100903.31;10473173;28;20041;-84
2023/12/26 07:38:53;;;;;;;0.00;0.00;;;;;;;23.83;100.00;100915.03;10489227;28;20106;-85
2023/12/26 07:43:55;;;;;;;0.00;0.00;;;;;;;22.85;100.00;100929.88;10475293;28;20059;-85
2023/12/26 07:48:57;;;;;;;0.00;0.00;;;;;;;23.14;100.00;100937.88;10482035;28;20044;-84
2023/12/26 07:54:02;;;;;;;1.35;0.20;;;;;;;23.88;100.00;100957.84;10481734;28;20135;-84
2023/12/26 07:59:04;;;;;;;0.10;0.03;;;;;;;23.72;100.00;100974.03;10467606;28;20048;-84
2023/12/26 08:04:06;;;;;;;0.93;0.47;;;;;;;23.60;100.00;100987.53;10493142;28;20102;-84
2023/12/26 08:09:08;;;;;;;0.00;0.00;;;;;;;24.08;100.00;100987.13;10465207;28;20048;-83
2023/12/26 08:14:10;;;;;;;0.00;0.00;;;;;;;23.89;100.00;100993.75;10480628;28;20053;-84
2023/12/26 08:19:12;;;;;;;0.05;0.05;;;;;;;23.16;100.00;100992.19;10481562;28;20616;-84
2023/12/26 08:24:14;;;;;;;0.00;0.00;;;;;;;23.24;100.00;100990.25;10465294;28;20043;-83
2023/12/26 08:29:15;;;;;;;0.00;0.00;;;;;;;22.70;100.00;100997.66;10478774;28;20135;-84
2023/12/26 08:34:17;;;;;;;0.00;0.00;;;;;;;22.87;100.00;101001.66;10477414;28;20125;-84
2023/12/26 08:39:20;;;;;;;0.00;0.00;;;;;;;23.50;100.00;101007.09;10483025;28;20106;-83
2023/12/26 08:44:22;;;;;;;0.30;0.10;;;;;;;23.27;100.00;101021.72;10460969;28;20127;-85
2023/12/26 08:49:24;;;;;;;0.00;0.00;;;;;;;23.80;100.00;101023.84;10480118;28;20124;-84
2023/12/26 08:54:26;;;;;;;0.35;0.20;;;;;;;24.58;100.00;101046.19;10467016;28;20590;-84
2023/12/26 08:59:27;;;;;;;0.00;0.00;;;;;;;24.02;100.00;101058.31;10463318;28;20071;-84
2023/12/26 09:04:30;;;;;;;0.00;0.00;;;;;;;24.05;100.00;101074.03;10476078;28;20047;-84
2023/12/26 09:09:33;;;;;;;0.00;0.00;;;;;;;24.59;100.00;101090.06;10475987;28;20044;-84
2023/12/26 09:14:36;;;;;;;1.20;1.10;;;;;;;23.99;100.00;101097.91;10478914;28;20070;-84
2023/12/26 09:19:38;;;;;;;0.00;0.00;;;;;;;23.82;100.00;101098.31;10496402;28;20063;-84
2023/12/26 09:24:44;;;;;;;0.00;0.00;;;;;;;23.04;100.00;101109.84;10479900;28;20044;-84
2023/12/26 09:29:46;;;;;;;0.05;0.05;;;;;;;23.33;100.00;101129.34;10481130;28;20594;-84
2023/12/26 09:34:47;;;;;;;0.52;0.43;;;;;;;24.62;100.00;101134.72;10515193;28;20052;-84
2023/12/26 09:39:50;;;;;;;0.08;0.08;;;;;;;23.10;100.00;101157.00;10470727;28;20059;-83
2023/12/26 09:44:53;;;;;;;0.00;0.00;;;;;;;24.36;100.00;101162.69;10475861;28;20036;-84
2023/12/26 09:49:55;;;;;;;0.00;0.00;;;;;;;23.79;100.00;101166.78;10499375;28;20565;-85
2023/12/26 09:54:58;;;;;;;1.35;0.28;;;;;;;24.69;100.00;101167.91;10512320;28;20094;-84
2023/12/26 10:00:01;;;;;;;0.10;0.10;;;;;;;22.79;100.00;101173.41;10483957;28;20047;-84
2023/12/26 10:05:12;;;;;;;0.28;0.17;;;;;;;23.21;100.00;101182.19;10479149;28;20093;-84
2023/12/26 10:10:22;;;;;;;0.20;0.20;;;;;;;23.41;100.00;101187.88;10454358;28;20407;-85
2023/12/26 10:15:26;;;;;;;0.00;0.00;;;;;;;24.03;100.00;101198.69;10459438;28;20040;-84
2023/12/26 10:20:33;;;;;;;2.28;0.73;;;;;;;25.43;100.00;101214.09;10458802;28;20051;-83
2023/12/26 10:25:34;;;;;;;0.00;0.00;;;;;;;22.93;100.00;101211.66;10474910;28;20086;-84
2023/12/26 10:30:36;;;;;;;1.00;0.25;;;;;;;23.81;100.00;101212.34;10473516;28;20040;-84
2023/12/26 10:35:38;;;;;;;0.40;0.40;;;;;;;23.86;100.00;101220.97;10472858;28;20028;-83
2023/12/26 10:40:40;;;;;;;0.30;0.10;;;;;;;23.69;100.00;101231.91;10484022;28;20147;-84
2023/12/26 10:45:42;;;;;;;0.85;0.30;;;;;;;23.86;100.00;101235.91;10476176;28;20045;-84
2023/12/26 10:50:44;;;;;;;0.30;0.10;;;;;;;23.92;100.00;101235.75;10470977;28;20418;-83
2023/12/26 10:55:46;;;;;;;0.00;0.00;;;;;;;25.51;100.00;101233.16;10472031;28;20052;-84
2023/12/26 13:56:43;;;;;;;0.00;0.00;;;;;;;24.63;93.45;101459.63;10482586;28;20049;-85
2023/12/26 14:01:45;;;;;;;0.35;0.25;;;;;;;;;;10476397;28;20114;-84
2023/12/26 14:06:47;;;;;;;0.32;0.22;;;;;;;24.69;93.71;101465.63;10466489;28;20079;-85
2023/12/26 14:11:49;;;;;;;0.00;0.00;;;;;;;23.42;93.84;101472.69;10470489;28;20041;-85
2023/12/26 14:16:51;;;;;;;1.30;0.43;;;;;;;24.76;93.05;101471.63;10468006;28;20420;-86
2023/12/26 14:21:53;;;;;;;0.00;0.00;;;;;;;24.64;91.54;101456.09;10467310;28;20140;-84
2023/12/26 14:26:55;;;;;;;0.52;0.13;;;;;;;24.77;88.31;101467.19;10469119;28;20048;-85
2023/12/26 14:31:57;;;;;;;0.32;0.25;;;;;;;24.71;89.74;101466.47;10481140;28;20053;-85
2023/12/26 14:36:59;;;;;;;0.00;0.00;;;;;;;24.13;90.97;101475.66;10474410;28;20075;-85
2023/12/26 14:42:02;;;;;;;0.57;0.32;;;;;;;24.93;87.22;101500.19;10470927;28;20703;-85
2023/12/26 14:47:04;;;;;;;0.10;0.00;;;;;;;24.13;87.38;101499.38;10498224;28;20052;-85
2023/12/26 14:52:06;;;;;;;0.38;0.20;;;;;;;23.28;87.72;101518.50;10466830;28;20050;-85
2023/12/26 14:57:08;;;;;;;0.45;0.40;;;;;;;24.42;86.41;101513.66;10463359;28;20052;-85
2023/12/26 15:02:10;;;;;;;0.00;0.00;;;;;;;25.21;84.82;101520.56;10450576;28;20098;-84
2023/12/26 15:07:12;;;;;;;0.00;0.00;;;;;;;24.09;88.12;101538.03;10462930;28;20523;-84
2023/12/26 15:12:14;;;;;;;0.38;0.05;;;;;;;24.54;85.93;101542.34;10464525;28;20044;-85
2023/12/26 15:17:17;;;;;;;0.28;0.17;;;;;;;24.66;87.94;101543.81;10466304;28;20094;-85
2023/12/26 15:22:19;;;;;;;0.00;0.00;;;;;;;24.45;87.13;101551.31;10447689;28;20044;-85
2023/12/26 15:27:21;;;;;;;0.60;0.45;;;;;;;24.51;86.89;101560.88;10487680;28;20046;-84
2023/12/26 15:32:23;;;;;;;0.00;0.00;;;;;;;24.78;86.41;101576.97;10456196;28;20045;-85
2023/12/26 15:37:25;;;;;;;0.00;0.00;;;;;;;24.06;86.59;101591.63;10459554;28;20404;-84
2023/12/26 15:42:27;;;;;;;0.00;0.00;;;;;;;25.16;85.53;101602.44;10461722;28;20124;-84
2023/12/26 15:47:29;;;;;;;0.28;0.03;;;;;;;24.73;84.99;101597.28;10463909;28;20415;-84
2023/12/26 15:52:31;;;;;;;0.00;0.00;;;;;;;24.57;85.58;101613.41;10485502;28;20045;-84
2023/12/26 15:57:32;;;;;;;0.25;0.20;;;;;;;24.82;85.34;101618.19;10458291;28;20041;-85
2023/12/26 16:02:34;;;;;;;0.10;0.10;;;;;;;24.12;88.23;101637.13;10502933;28;20146;-85
2023/12/26 16:07:38;;;;;;;0.00;0.00;;;;;;;24.00;87.98;101651.41;10475620;28;20068;-84
2023/12/26 16:12:40;;;;;;;0.20;0.20;;;;;;;23.65;87.37;101653.72;10472728;28;20179;-83
2023/12/26 16:17:42;;;;;;;0.00;0.00;;;;;;;25.54;87.53;101657.81;10475179;28;20050;-85
2023/12/26 16:22:43;;;;;;;1.08;0.45;;;;;;;24.61;87.34;101670.38;10471184;28;20068;-85
2023/12/26 16:27:45;;;;;;;0.08;0.08;;;;;;;25.66;86.70;101675.97;10466679;28;20083;-85
2023/12/26 16:32:47;;;;;;;0.00;0.00;;;;;;;24.89;85.83;101693.56;10500585;28;20133;-84
2023/12/26 16:37:49;;;;;;;0.00;0.00;;;;;;;23.93;88.60;101700.66;10474523;28;20123;-85
2023/12/26 16:42:51;;;;;;;0.00;0.00;;;;;;;23.48;90.82;101711.00;10489888;28;20515;-84
2023/12/26 16:47:58;;;;;;;0.00;0.00;;;;;;;23.84;91.72;101729.72;10477117;28;20447;-96
2023/12/26 16:53:00;;;;;;;0.75;0.28;;;;;;;22.99;93.48;101750.19;10475783;28;20044;-84
2023/12/26 16:58:02;;;;;;;0.15;0.05;;;;;;;22.54;97.54;101765.56;10491208;28;20048;-86
2023/12/26 17:03:04;;;;;;;0.00;0.00;;;;;;;23.55;96.93;101768.72;10486449;28;20048;-87
2023/12/26 17:08:06;;;;;;;0.00;0.00;;;;;;;23.55;93.59;101779.25;10472199;28;20044;-84
2023/12/26 17:13:08;;;;;;;0.08;0.08;;;;;;;26.06;90.29;101773.53;10473949;28;20098;-84
2023/12/26 17:18:10;;;;;;;0.00;0.00;;;;;;;25.97;87.76;101786.06;10473348;28;20487;-85
2023/12/26 17:23:11;;;;;;;0.05;0.05;;;;;;;25.85;87.49;101786.38;10476047;28;20138;-86
2023/12/26 17:28:14;;;;;;;0.00;0.00;;;;;;;26.07;86.09;101785.81;10487711;28;20098;-87
2023/12/26 17:33:20;;;;;;;0.00;0.00;;;;;;;25.69;85.35;101796.41;10471959;28;20419;-84
2023/12/26 17:38:24;;;;;;;0.00;0.00;;;;;;;24.40;88.39;101814.78;10449045;28;20056;-84
2023/12/26 17:43:26;;;;;;;0.22;0.22;;;;;;;25.92;85.62;101809.06;10472340;28;20048;-85
2023/12/26 17:48:28;;;;;;;0.00;0.00;;;;;;;25.04;86.31;101821.53;10472684;28;20040;-84
2023/12/26 17:53:30;;;;;;;1.00;0.45;;;;;;;25.75;85.35;101817.41;10473407;28;20032;-84
2023/12/26 17:58:32;;;;;;;0.65;0.10;;;;;;;26.88;80.50;101822.50;10462968;28;20159;-85
2023/12/26 18:03:34;;;;;;;0.00;0.00;;;;;;;26.04;81.88;101822.84;10472423;28;20079;-84
2023/12/26 18:08:40;;;;;;;0.00;0.00;;;;;;;26.05;80.86;101835.16;10469866;28;20545;-84
2023/12/26 18:13:42;;;;;;;0.00;0.00;;;;;;;25.02;80.31;101840.00;10488229;28;20068;-85
2023/12/26 18:18:44;;;;;;;0.00;0.00;;;;;;;27.94;75.54;101835.22;10480348;28;20045;-86
2023/12/26 18:23:47;;;;;;;0.00;0.00;;;;;;;26.84;77.39;101844.66;10465954;28;20059;-87
2023/12/26 18:28:50;;;;;;;0.38;0.38;;;;;;;25.68;79.68;101851.84;10449349;28;20059;-85
2023/12/26 18:33:51;;;;;;;0.00;0.00;;;;;;;25.53;79.93;101859.22;10467795;28;20033;-85
2023/12/26 18:38:53;;;;;;;0.00;0.00;;;;;;;26.78;77.67;101852.72;10465005;28;20048;-85
2023/12/26 18:43:56;;;;;;;0.00;0.00;;;;;;;26.39;79.12;101860.78;10468593;28;20044;-86
2023/12/26 18:48:58;;;;;;;0.13;0.13;;;;;;;29.63;69.68;101875.25;10462306;28;20052;-84
2023/12/26 18:54:01;;;;;;;0.10;0.10;;;;;;;24.27;82.68;101879.09;10506235;28;20045;-85
2023/12/26 18:59:03;;;;;;;0.00;0.00;;;;;;;22.93;87.70;101877.28;10466596;28;20041;-83
2023/12/26 19:04:04;;;;;;;0.20;0.17;;;;;;;23.31;89.30;101885.63;10464272;28;20078;-86
2023/12/26 19:09:10;;;;;;;0.00;0.00;;;;;;;26.03;82.67;101895.03;10461715;28;20635;-85
2023/12/26 19:14:12;;;;;;;0.00;0.00;;;;;;;28.41;72.34;101898.19;10466718;28;20377;-87
2023/12/26 19:19:14;;;;;;;1.52;0.20;;;;;;;25.96;80.34;101913.69;10459653;28;20044;-86
2023/12/26 19:24:17;;;;;;;0.00;0.00;;;;;;;23.85;87.14;101918.28;10467168;28;20491;-85
2023/12/26 19:29:20;;;;;;;0.00;0.00;;;;;;;23.86;85.91;101936.69;10475928;28;20044;-86
2023/12/26 19:34:22;;;;;;;0.00;0.00;;;;;;;24.59;85.00;101935.63;10473582;28;20033;-88
2023/12/26 19:39:25;;;;;;;0.00;0.00;;;;;;;27.10;75.17;101938.25;10489648;28;20052;-92
2023/12/26 19:44:29;;;;;;;7.13;0.30;;;;;;;23.26;85.10;101956.66;10484613;28;20044;-86
2023/12/26 19:49:31;;;;;;;0.00;0.00;;;;;;;27.32;75.53;101948.22;10448195;28;20491;-86
2023/12/26 19:54:33;;;;;;;0.00;0.00;;;;;;;26.74;73.11;101954.13;10487977;28;20044;-86
2023/12/26 19:59:35;;;;;;;0.00;0.00;;;;;;;24.44;81.31;101957.81;10470915;28;20052;-86
2023/12/26 20:04:40;;;;;;;0.08;0.08;;;;;;;25.73;73.77;101955.53;10451449;28;20048;-86
2023/12/26 20:09:42;;;;;;;0.00;0.00;;;;;;;25.76;74.62;101977.50;10463190;28;20633;-87
2023/12/26 20:14:44;;;;;;;0.20;0.10;;;;;;;25.66;75.03;101968.88;10494052;28;20072;-86
2023/12/26 20:19:46;;;;;;;0.00;0.00;;;;;;;27.46;69.78;101985.78;10476589;28;20828;-87
2023/12/26 20:24:49;;;;;;;0.00;0.00;;;;;;;26.41;70.92;101994.56;10470534;28;20139;-86
2023/12/26 20:29:52;;;;;;;3.75;1.00;;;;;;;26.14;73.18;101993.44;10475508;28;20131;-87
2023/12/26 20:34:54;;;;;;;0.93;0.57;;;;;;;-146.30;100.00;58188.94;10478063;28;20044;-86
2023/12/26 20:39:56;;;;;;;0.43;0.32;;;;;;;-146.30;100.00;58188.94;10458898;28;20044;-91
2023/12/26 20:44:58;;;;;;;0.00;0.00;;;;;;;-146.30;100.00;58188.94;10485847;28;20049;-84
2023/12/26 20:50:01;;;;;;;0.05;0.00;;;;;;;-146.30;100.00;58188.94;10475015;28;20040;-85
2023/12/26 20:55:03;;;;;;;0.35;0.30;;;;;;;-146.30;100.00;58188.94;10471092;28;20049;-86
2023/12/26 21:00:05;;;;;;;0.40;0.20;;;;;;;-146.30;100.00;58188.94;10468955;28;20052;-87
2023/12/26 21:05:07;;;;;;;0.38;0.25;;;;;;;-146.30;100.00;58188.94;10473911;28;20123;-86
2023/12/26 21:10:09;;;;;;;0.22;0.10;;;;;;;-146.30;100.00;58188.94;10458711;28;20123;-86
2023/12/26 21:15:13;;;;;;;0.50;0.30;;;;;;;-146.30;100.00;58188.94;10475831;28;20072;-86
2023/12/26 21:20:15;;;;;;;0.50;0.30;;;;;;;-146.30;100.00;58188.94;10474193;28;20078;-86
2023/12/26 21:25:16;;;;;;;0.90;0.55;;;;;;;-146.30;100.00;58188.94;10470885;28;20041;-89
2023/12/26 21:30:18;;;;;;;0.15;0.15;;;;;;;-146.30;100.00;58188.94;10461506;28;20052;-85
2023/12/26 21:35:21;;;;;;;0.00;0.00;;;;;;;-146.30;100.00;58188.94;10461623;28;20178;-87
2023/12/26 21:40:22;;;;;;;0.35;0.20;;;;;;;-146.30;100.00;58188.94;10461030;28;20835;-86
2023/12/26 21:45:24;;;;;;;0.17;0.13;;;;;;;-146.30;100.00;58188.94;10466300;28;20043;-86
2023/12/26 21:50:26;;;;;;;11.50;0.28;;;;;;;-146.30;100.00;58188.94;10464888;28;20049;-86
2023/12/26 21:55:28;;;;;;;0.10;0.10;;;;;;;-146.30;100.00;58188.94;10462801;28;20460;-86
2023/12/26 22:00:30;;;;;;;0.00;0.00;;;;;;;-146.30;100.00;58188.94;10463874;28;20140;-84
2023/12/26 22:05:32;;;;;;;0.00;0.00;;;;;;;-146.30;100.00;58188.94;10467820;28;20033;-86
2023/12/26 22:10:34;;;;;;;0.10;0.10;;;;;;;-146.30;100.00;58188.94;10502609;28;20036;-90
2023/12/26 22:15:35;;;;;;;0.05;0.05;;;;;;;-146.30;100.00;58188.94;10470934;28;20052;-89
2023/12/26 22:20:37;;;;;;;0.17;0.17;;;;;;;-146.30;100.00;58188.94;10471816;28;20440;-87
2023/12/26 22:25:39;;;;;;;0.22;0.05;;;;;;;-146.30;100.00;58188.94;10502482;28;20471;-85
2023/12/26 22:30:44;;;;;;;0.38;0.38;;;;;;;-146.30;100.00;58188.94;10475094;28;20048;-85
2023/12/26 22:35:46;;;;;;;0.55;0.43;;;;;;;-146.30;100.00;58188.94;10473058;28;20595;-85
2023/12/26 22:40:48;;;;;;;1.38;0.20;;;;;;;-146.30;100.00;58188.94;10472134;28;20055;-85
2023/12/26 22:45:50;;;;;;;0.00;0.00;;;;;;;-146.30;100.00;58188.94;10476195;28;20479;-85
2023/12/26 22:50:52;;;;;;;1.65;1.13;;;;;;;-146.30;100.00;58188.94;10499191;28;20418;-85
2023/12/26 22:55:54;;;;;;;0.00;0.00;;;;;;;-146.30;100.00;58188.94;10510848;28;20487;-86
2023/12/26 23:00:56;;;;;;;0.22;0.17;;;;;;;-146.30;100.00;58188.94;10489130;28;20067;-85
2023/12/26 23:06:02;;;;;;;0.70;0.45;;;;;;;-146.30;100.00;58188.94;10510435;28;20044;-85
2023/12/26 23:11:04;;;;;;;0.00;0.00;;;;;;;-146.30;100.00;58188.94;10482350;28;20048;-84
2023/12/26 23:16:07;;;;;;;0.10;0.10;;;;;;;-146.30;100.00;58188.94;10506134;28;20496;-85
2023/12/26 23:21:16;;;;;;;0.13;0.13;;;;;;;-146.30;100.00;58188.94;10509373;28;20101;-85
2023/12/26 23:26:20;;;;;;;;;;;;;;;-146.30;100.00;58188.94;10517106;28;20037;-85
2023/12/26 23:31:22;;;;;;;0.35;0.30;;;;;;;-146.30;100.00;58188.94;10485232;28;19956;-86
2023/12/26 23:36:24;;;;;;;0.73;0.40;;;;;;;-146.30;100.00;58188.94;10483483;28;20492;-86
2023/12/26 23:41:26;;;;;;;0.10;0.10;;;;;;;-146.30;100.00;58188.94;10486107;28;20056;-85
2023/12/26 23:46:29;;;;;;;0.00;0.00;;;;;;;-146.30;100.00;58188.94;10492864;28;20047;-85
2023/12/26 23:51:33;;;;;;;0.45;0.17;;;;;;;-146.30;100.00;58188.94;10477542;28;20044;-86
2023/12/26 23:56:36;;;;;;;0.10;0.10;;;;;;;-146.30;100.00;58188.94;10499916;28;20072;-86
